Time;durP1;ratioP1;P1;durP2;ratioP2;P2;SDS_P1;SDS_P2;PMS_P1;PMS_P2;Temp;Humidity;BMP_temperature;BMP_pressure;BME280_temperature;BME280_humidity;BME280_pressure;Samples;Min_cycle;Max_cycle;Signal;HPM_P1;HPM_P2
2023/04/28 00:01:36;;;;;;;;;;;9.50;99.90;;;;;;5102918;28;19927;-69
2023/04/28 00:04:03;;;;;;;;;;;9.50;99.90;;;;;;5103287;28;19955;-69
2023/04/28 00:06:30;;;;;;;;;;;9.50;99.90;;;;;;5104661;28;19942;-69
2023/04/28 00:08:57;;;;;;;;;;;9.50;99.90;;;;;;5106914;28;19924;-69
2023/04/28 00:11:23;;;;;;;;;;;9.50;99.90;;;;;;5106809;28;19983;-69
2023/04/28 00:13:51;;;;;;;;;;;9.50;99.90;;;;;;5107152;28;20171;-70
2023/04/28 00:16:18;;;;;;;;;;;9.50;99.90;;;;;;5106294;28;19983;-69
2023/04/28 00:18:45;;;;;;;;;;;9.50;99.90;;;;;;5103485;28;20263;-71
2023/04/28 00:21:11;;;;;;;;;;;9.40;99.90;;;;;;5106434;28;19927;-70
2023/04/28 00:23:38;;;;;;;;;;;9.40;99.90;;;;;;5106575;28;20260;-69
2023/04/28 00:26:05;;;;;;;;;;;9.40;99.90;;;;;;5106537;28;19924;-69
2023/04/28 00:28:31;;;;;;;;;;;9.50;99.90;;;;;;5106387;28;19983;-70
2023/04/28 00:30:59;;;;;;;;;;;9.50;99.90;;;;;;5106726;28;19926;-69
2023/04/28 00:33:26;;;;;;;;;;;9.40;99.90;;;;;;5106551;28;19920;-70
2023/04/28 00:35:58;;;;;;;;;;;9.40;99.90;;;;;;5106107;28;19987;-68
2023/04/28 00:38:25;;;;;;;;;;;9.40;99.90;;;;;;5105791;28;19995;-69
2023/04/28 00:40:51;;;;;;;;;;;9.40;99.90;;;;;;5106510;28;19983;-70
2023/04/28 00:43:18;;;;;;;;;;;9.40;99.90;;;;;;5106333;28;19924;-68
2023/04/28 00:45:44;;;;;;;;;;;9.40;99.90;;;;;;5106320;28;19988;-70
2023/04/28 00:48:13;;;;;;;;;;;9.40;99.90;;;;;;5106149;28;20254;-69
2023/04/28 00:50:40;;;;;;;;;;;9.40;99.90;;;;;;5106362;28;19920;-69
2023/04/28 00:53:06;;;;;;;;;;;9.40;99.90;;;;;;5106315;28;19986;-70
2023/04/28 00:55:34;;;;;;;;;;;9.40;99.90;;;;;;5106162;28;19966;-68
2023/04/28 00:58:02;;;;;;;;;;;9.30;99.90;;;;;;5105429;28;19920;-68
2023/04/28 01:00:28;;;;;;;;;;;9.20;99.90;;;;;;5106194;28;19987;-69
2023/04/28 01:02:56;;;;;;;;;;;9.20;99.90;;;;;;5106185;28;20361;-68
2023/04/28 01:05:25;;;;;;;;;;;9.20;99.90;;;;;;5105788;28;19966;-69
2023/04/28 01:07:51;;;;;;;;;;;9.20;99.90;;;;;;5105285;28;19927;-69
2023/04/28 01:10:18;;;;;;;;;;;9.20;99.90;;;;;;5105771;28;20078;-70
2023/04/28 01:12:44;;;;;;;;;;;9.20;99.90;;;;;;5105640;28;20166;-68
2023/04/28 01:15:17;;;;;;;;;;;9.20;99.90;;;;;;5105571;28;20003;-69
2023/04/28 01:17:45;;;;;;;;;;;9.20;99.90;;;;;;5102066;28;19926;-68
2023/04/28 01:20:13;;;;;;;;;;;9.20;99.90;;;;;;5105592;28;19955;-70
2023/04/28 01:22:41;;;;;;;;;;;9.20;99.90;;;;;;5105684;28;19926;-68
2023/04/28 01:25:09;;;;;;;;;;;9.20;99.90;;;;;;5105303;28;20263;-70
2023/04/28 01:27:36;;;;;;;;;;;9.20;99.90;;;;;;5104954;28;19920;-70
2023/04/28 01:30:02;;;;;;;;;;;9.20;99.90;;;;;;5105538;28;20154;-69
2023/04/28 01:32:29;;;;;;;;;;;9.20;99.90;;;;;;5105513;28;19991;-68
2023/04/28 01:34:55;;;;;;;;;;;9.20;99.90;;;;;;5104962;28;19963;-69
2023/04/28 01:37:22;;;;;;;;;;;9.20;99.90;;;;;;5104668;28;19984;-73
2023/04/28 01:39:49;;;;;;;;;;;9.30;99.90;;;;;;5105532;28;19920;-69
2023/04/28 01:42:17;;;;;;;;;;;9.20;99.90;;;;;;5105226;28;19983;-69
2023/04/28 01:44:43;;;;;;;;;;;9.20;99.90;;;;;;5105257;28;19952;-69
2023/04/28 01:47:10;;;;;;;;;;;9.20;99.90;;;;;;5104388;28;20254;-70
2023/04/28 01:49:37;;;;;;;;;;;9.20;99.90;;;;;;5104741;28;19983;-69
2023/04/28 01:52:03;;;;;;;;;;;9.20;99.90;;;;;;5105230;28;19955;-68
2023/04/28 01:54:30;;;;;;;;;;;9.20;99.90;;;;;;5105103;28;19987;-68
2023/04/28 01:56:57;;;;;;;;;;;9.30;99.90;;;;;;5103965;28;20149;-68
2023/04/28 01:59:25;;;;;;;;;;;9.30;99.90;;;;;;5105047;28;19920;-69
2023/04/28 02:01:51;;;;;;;;;;;9.30;99.90;;;;;;5104574;28;19990;-69
2023/04/28 02:04:18;;;;;;;;;;;9.30;99.90;;;;;;5104497;28;20283;-70
2023/04/28 02:06:44;;;;;;;;;;;9.20;99.90;;;;;;5103766;28;19983;-69
2023/04/28 02:09:11;;;;;;;;;;;9.20;99.90;;;;;;5104776;28;19996;-70
2023/04/28 02:11:38;;;;;;;;;;;9.20;99.90;;;;;;5104752;28;20252;-69
2023/04/28 02:14:04;;;;;;;;;;;9.20;99.90;;;;;;5104884;28;19958;-68
2023/04/28 02:16:32;;;;;;;;;;;9.20;99.90;;;;;;5104388;28;19986;-70
2023/04/28 02:18:59;;;;;;;;;;;9.30;99.90;;;;;;5103299;28;19986;-68
2023/04/28 02:21:26;;;;;;;;;;;9.30;99.90;;;;;;5104608;28;20027;-68
2023/04/28 02:23:53;;;;;;;;;;;9.30;99.90;;;;;;5104271;28;19920;-69
2023/04/28 02:26:20;;;;;;;;;;;9.30;99.90;;;;;;5104148;28;19983;-70
2023/04/28 02:28:47;;;;;;;;;;;9.30;99.90;;;;;;5103708;28;19986;-69
2023/04/28 02:31:14;;;;;;;;;;;9.40;99.90;;;;;;5104346;28;19987;-70
2023/04/28 02:33:42;;;;;;;;;;;9.30;99.90;;;;;;5104386;28;19920;-69
2023/04/28 02:36:09;;;;;;;;;;;9.40;99.90;;;;;;5103420;28;19920;-69
2023/04/28 02:38:36;;;;;;;;;;;9.50;99.90;;;;;;5104125;28;19933;-70
2023/04/28 02:41:04;;;;;;;;;;;9.50;99.90;;;;;;5104271;28;19920;-69
2023/04/28 02:43:31;;;;;;;;;;;9.60;99.90;;;;;;5104026;28;19952;-68
2023/04/28 02:45:58;;;;;;;;;;;9.70;99.90;;;;;;5103485;28;19928;-69
2023/04/28 02:48:25;;;;;;;;;;;9.80;99.90;;;;;;5103796;28;19920;-70
2023/04/28 02:50:53;;;;;;;;;;;9.80;99.90;;;;;;5103930;28;19926;-67
2023/04/28 02:53:20;;;;;;;;;;;9.90;99.90;;;;;;5104147;28;20115;-69
2023/04/28 02:55:46;;;;;;;;;;;9.90;99.90;;;;;;5103073;28;19955;-69
2023/04/28 02:58:13;;;;;;;;;;;9.90;99.90;;;;;;5103666;28;19950;-69
2023/04/28 03:00:40;;;;;;;;;;;10.00;99.90;;;;;;5103762;28;20204;-70
2023/04/28 03:03:06;;;;;;;;;;;10.00;99.90;;;;;;5103563;28;20215;-68
2023/04/28 03:05:33;;;;;;;;;;;10.00;99.90;;;;;;5103301;28;19995;-68
2023/04/28 03:08:01;;;;;;;;;;;9.90;99.90;;;;;;5103224;28;19987;-68
2023/04/28 03:10:27;;;;;;;;;;;10.00;99.90;;;;;;5132258;27;19925;-69
2023/04/28 03:12:54;;;;;;;;;;;9.90;99.90;;;;;;5144822;27;19925;-69
2023/04/28 03:15:21;;;;;;;;;;;10.00;99.90;;;;;;5144691;27;19951;-69
2023/04/28 03:17:47;;;;;;;;;;;10.00;99.90;;;;;;5102563;28;20239;-69
2023/04/28 03:20:14;;;;;;;;;;;10.00;99.90;;;;;;5103804;28;19970;-68
2023/04/28 03:22:41;;;;;;;;;;;10.00;99.90;;;;;;5103662;28;19920;-70
2023/04/28 03:25:09;;;;;;;;;;;10.00;99.90;;;;;;5103338;28;20212;-69
2023/04/28 03:27:36;;;;;;;;;;;10.00;99.90;;;;;;5103516;28;20119;-68
2023/04/28 03:30:02;;;;;;;;;;;10.10;99.90;;;;;;5103695;28;19955;-69
2023/04/28 03:32:29;;;;;;;;;;;10.20;99.90;;;;;;5103618;28;19983;-70
2023/04/28 03:34:56;;;;;;;;;;;10.10;99.90;;;;;;5103305;28;19924;-68
2023/04/28 03:37:22;;;;;;;;;;;10.20;99.90;;;;;;5102662;28;19967;-70
2023/04/28 03:39:49;;;;;;;;;;;10.10;99.90;;;;;;5107999;28;19959;-68
2023/04/28 03:42:17;;;;;;;;;;;10.10;99.90;;;;;;5128432;28;20115;-69
2023/04/28 03:44:44;;;;;;;;;;;10.10;99.90;;;;;;5128077;28;19920;-70
2023/04/28 03:47:10;;;;;;;;;;;10.20;99.90;;;;;;5127581;28;19983;-69
2023/04/28 03:49:37;;;;;;;;;;;10.10;99.90;;;;;;5127931;28;19919;-68
2023/04/28 03:52:04;;;;;;;;;;;10.20;99.90;;;;;;5127708;28;19983;-70
2023/04/28 03:54:30;;;;;;;;;;;10.30;99.90;;;;;;5128145;28;19946;-70
2023/04/28 03:56:58;;;;;;;;;;;10.20;99.90;;;;;;5127012;28;19920;-70
2023/04/28 03:59:26;;;;;;;;;;;10.30;99.90;;;;;;5127762;28;19981;-69
2023/04/28 04:01:52;;;;;;;;;;;10.30;99.90;;;;;;5127442;28;20347;-70
2023/04/28 04:04:19;;;;;;;;;;;10.30;99.90;;;;;;5127762;27;19963;-69
2023/04/28 04:06:46;;;;;;;;;;;10.30;99.90;;;;;;5126566;28;19951;-69
2023/04/28 04:09:12;;;;;;;;;;;10.30;99.90;;;;;;5124982;28;19992;-69
2023/04/28 04:11:39;;;;;;;;;;;10.30;99.90;;;;;;5127284;28;19988;-69
2023/04/28 04:14:06;;;;;;;;;;;10.40;99.90;;;;;;5127467;27;19920;-69
2023/04/28 04:16:35;;;;;;;;;;;10.40;99.90;;;;;;5126630;28;20154;-69
2023/04/28 04:19:02;;;;;;;;;;;10.40;99.90;;;;;;5126722;28;19990;-70
2023/04/28 04:21:28;;;;;;;;;;;10.40;99.90;;;;;;5127019;28;19926;-70
2023/04/28 04:23:55;;;;;;;;;;;10.50;99.90;;;;;;5127203;28;19982;-69
2023/04/28 04:26:22;;;;;;;;;;;10.50;99.90;;;;;;5126514;28;19983;-68
2023/04/28 04:28:48;;;;;;;;;;;10.60;99.90;;;;;;5126873;28;19926;-69
2023/04/28 04:31:15;;;;;;;;;;;10.60;99.90;;;;;;5127071;28;19986;-69
2023/04/28 04:33:43;;;;;;;;;;;10.60;99.90;;;;;;5127132;27;19951;-68
2023/04/28 04:36:10;;;;;;;;;;;10.60;99.90;;;;;;5126244;28;19951;-68
2023/04/28 04:38:36;;;;;;;;;;;10.60;99.90;;;;;;5126562;28;20283;-70
2023/04/28 04:41:03;;;;;;;;;;;10.60;99.90;;;;;;5127126;28;19951;-69
2023/04/28 04:43:29;;;;;;;;;;;10.60;99.90;;;;;;5126566;28;19951;-71
2023/04/28 04:45:56;;;;;;;;;;;10.60;99.90;;;;;;5125769;28;20234;-69
2023/04/28 04:48:23;;;;;;;;;;;10.60;99.90;;;;;;5126257;28;19994;-68
2023/04/28 04:50:51;;;;;;;;;;;10.60;99.90;;;;;;5125978;28;19947;-69
2023/04/28 04:53:17;;;;;;;;;;;10.60;99.90;;;;;;5126375;28;20279;-69
2023/04/28 04:55:44;;;;;;;;;;;10.60;99.90;;;;;;5126296;28;19991;-68
2023/04/28 04:58:10;;;;;;;;;;;10.60;99.90;;;;;;5123637;28;19919;-69
2023/04/28 05:00:37;;;;;;;;;;;10.50;99.90;;;;;;5124119;28;19986;-69
2023/04/28 05:03:05;;;;;;;;;;;10.60;99.90;;;;;;5126261;27;19995;-69
2023/04/28 05:05:31;;;;;;;;;;;10.60;99.90;;;;;;5126449;28;19992;-70
2023/04/28 05:07:59;;;;;;;;;;;10.60;99.90;;;;;;5121203;27;19994;-69
2023/04/28 05:10:26;;;;;;;;;;;10.60;99.90;;;;;;5123808;28;20386;-70
2023/04/28 05:12:53;;;;;;;;;;;10.60;99.90;;;;;;5126077;28;19919;-69
2023/04/28 05:15:19;;;;;;;;;;;10.60;99.90;;;;;;5126008;28;19920;-68
2023/04/28 05:17:46;;;;;;;;;;;10.60;99.90;;;;;;5107454;28;19992;-69
2023/04/28 05:20:15;;;;;;;;;;;10.60;99.90;;;;;;5103043;28;19920;-70
2023/04/28 05:22:41;;;;;;;;;;;10.60;99.90;;;;;;5118275;28;19920;-68
2023/04/28 05:25:09;;;;;;;;;;;10.70;99.90;;;;;;5125927;28;20279;-70
2023/04/28 05:27:38;;;;;;;;;;;10.70;99.90;;;;;;5107514;28;19983;-70
2023/04/28 05:30:05;;;;;;;;;;;10.80;99.90;;;;;;5125877;28;20283;-69
2023/04/28 05:32:32;;;;;;;;;;;10.80;99.90;;;;;;5125598;28;19987;-69
2023/04/28 05:34:58;;;;;;;;;;;10.80;99.90;;;;;;5125522;28;19920;-69
2023/04/28 05:37:25;;;;;;;;;;;10.80;99.90;;;;;;5125177;28;19958;-70
2023/04/28 05:39:51;;;;;;;;;;;10.70;99.90;;;;;;5125913;28;19958;-69
2023/04/28 05:42:19;;;;;;;;;;;10.80;99.90;;;;;;5125771;28;19983;-71
2023/04/28 05:44:46;;;;;;;;;;;10.80;99.90;;;;;;5125169;28;19919;-69
2023/04/28 05:47:13;;;;;;;;;;;10.80;99.90;;;;;;5120077;28;20204;-69
2023/04/28 05:49:39;;;;;;;;;;;10.80;99.90;;;;;;5113423;28;19947;-69
2023/04/28 05:52:06;;;;;;;;;;;10.80;99.90;;;;;;5125538;28;20136;-69
2023/04/28 05:54:34;;;;;;;;;;;10.90;99.90;;;;;;5125657;28;19920;-69
2023/04/28 05:57:01;;;;;;;;;;;10.80;99.90;;;;;;5124742;28;19958;-70
2023/04/28 05:59:30;;;;;;;;;;;10.80;99.90;;;;;;5125365;28;19990;-69
2023/04/28 06:01:57;;;;;;;;;;;10.80;99.90;;;;;;5125135;28;20093;-69
2023/04/28 06:04:24;;;;;;;;;;;10.80;99.90;;;;;;5125400;28;19992;-70
2023/04/28 06:06:50;;;;;;;;;;;10.80;99.90;;;;;;5124383;28;19927;-70
2023/04/28 06:09:17;;;;;;;;;;;10.80;99.90;;;;;;5125251;28;19951;-69
2023/04/28 06:11:43;;;;;;;;;;;10.80;99.90;;;;;;5124905;28;20270;-70
2023/04/28 06:14:10;;;;;;;;;;;10.80;99.90;;;;;;5125236;28;19987;-70
2023/04/28 06:16:38;;;;;;;;;;;10.90;99.90;;;;;;5124854;28;19982;-70
2023/04/28 06:19:05;;;;;;;;;;;10.90;99.90;;;;;;5122253;28;20401;-69
2023/04/28 06:21:32;;;;;;;;;;;10.90;99.90;;;;;;5123920;28;19924;-70
2023/04/28 06:23:59;;;;;;;;;;;10.90;99.90;;;;;;5124738;28;19920;-71
2023/04/28 06:26:28;;;;;;;;;;;10.90;99.90;;;;;;5123718;28;19920;-69
2023/04/28 06:28:55;;;;;;;;;;;10.90;99.90;;;;;;5124847;28;19987;-69
2023/04/28 06:31:21;;;;;;;;;;;10.90;99.90;;;;;;5123544;28;20115;-69
2023/04/28 06:33:50;;;;;;;;;;;10.90;99.90;;;;;;5124821;28;19951;-71
2023/04/28 06:36:16;;;;;;;;;;;10.90;99.90;;;;;;5123620;28;19949;-69
2023/04/28 06:38:43;;;;;;;;;;;10.90;99.90;;;;;;5124683;28;20223;-69
2023/04/28 06:41:10;;;;;;;;;;;10.90;99.90;;;;;;5124693;28;20204;-69
2023/04/28 06:43:37;;;;;;;;;;;10.90;99.90;;;;;;5124669;28;19919;-70
2023/04/28 06:46:04;;;;;;;;;;;10.90;99.90;;;;;;5124353;28;19919;-69
2023/04/28 06:48:30;;;;;;;;;;;10.90;99.90;;;;;;5124149;28;20260;-69
2023/04/28 06:50:58;;;;;;;;;;;10.90;99.90;;;;;;5124657;28;19919;-69
2023/04/28 06:53:25;;;;;;;;;;;10.90;99.90;;;;;;5124149;28;19988;-69
2023/04/28 06:55:52;;;;;;;;;;;10.90;99.90;;;;;;5123608;28;19920;-70
2023/04/28 06:58:19;;;;;;;;;;;10.90;99.90;;;;;;5123980;28;19920;-70
2023/04/28 07:00:46;;;;;;;;;;;10.90;99.90;;;;;;5124247;28;19920;-69
2023/04/28 07:03:12;;;;;;;;;;;10.90;99.90;;;;;;5119223;28;19983;-70
2023/04/28 07:05:39;;;;;;;;;;;10.90;99.90;;;;;;5103541;28;19955;-69
2023/04/28 07:08:07;;;;;;;;;;;10.90;99.90;;;;;;5103524;28;20153;-69
2023/04/28 07:10:34;;;;;;;;;;;11.00;99.90;;;;;;5103886;28;19920;-70
2023/04/28 07:13:00;;;;;;;;;;;11.00;99.90;;;;;;5103778;28;19955;-69
2023/04/28 07:15:27;;;;;;;;;;;11.00;99.90;;;;;;5103299;28;20189;-70
2023/04/28 07:17:54;;;;;;;;;;;11.00;99.90;;;;;;5103275;28;19920;-69
2023/04/28 07:20:20;;;;;;;;;;;11.10;99.90;;;;;;5103478;28;19982;-71
2023/04/28 07:22:47;;;;;;;;;;;11.00;99.90;;;;;;5103427;28;19955;-69
2023/04/28 07:25:15;;;;;;;;;;;11.00;99.90;;;;;;5103640;28;19982;-69
2023/04/28 07:27:42;;;;;;;;;;;11.00;99.90;;;;;;5102175;28;20230;-69
2023/04/28 07:30:08;;;;;;;;;;;11.00;99.90;;;;;;5103329;28;20170;-71
2023/04/28 07:32:35;;;;;;;;;;;11.00;99.90;;;;;;5103503;28;19920;-70
2023/04/28 07:35:03;;;;;;;;;;;11.00;99.90;;;;;;5122806;28;19920;-70
2023/04/28 07:37:29;;;;;;;;;;;10.90;99.90;;;;;;5123501;28;19919;-69
2023/04/28 07:39:56;;;;;;;;;;;11.00;99.90;;;;;;5123765;28;20108;-69
2023/04/28 07:42:24;;;;;;;;;;;10.90;99.90;;;;;;5123983;28;19982;-68
2023/04/28 07:44:51;;;;;;;;;;;10.90;99.90;;;;;;5123951;28;19982;-69
2023/04/28 07:47:17;;;;;;;;;;;10.80;99.90;;;;;;5123086;28;19999;-69
2023/04/28 07:49:44;;;;;;;;;;;10.90;99.90;;;;;;5123561;28;19986;-70
2023/04/28 07:52:10;;;;;;;;;;;10.90;99.90;;;;;;5123716;28;19983;-69
2023/04/28 07:54:37;;;;;;;;;;;10.90;99.90;;;;;;5123816;28;19920;-71
2023/04/28 07:57:04;;;;;;;;;;;10.90;99.90;;;;;;5123167;28;20115;-70
2023/04/28 07:59:33;;;;;;;;;;;10.90;99.90;;;;;;5122498;28;20142;-69
2023/04/28 08:01:59;;;;;;;;;;;10.90;99.90;;;;;;5123400;28;19979;-70
2023/04/28 08:04:26;;;;;;;;;;;10.90;99.90;;;;;;5123441;28;20267;-69
2023/04/28 08:06:53;;;;;;;;;;;10.90;99.90;;;;;;5122861;28;19955;-69
2023/04/28 08:09:19;;;;;;;;;;;10.90;99.90;;;;;;5123732;28;19962;-69
2023/04/28 08:11:46;;;;;;;;;;;10.90;99.90;;;;;;5123240;28;19919;-70
2023/04/28 08:14:13;;;;;;;;;;;10.90;99.90;;;;;;5123631;28;19988;-69
2023/04/28 08:16:41;;;;;;;;;;;10.90;99.90;;;;;;5122808;28;19920;-69
2023/04/28 08:19:07;;;;;;;;;;;10.90;99.90;;;;;;5123570;28;19927;-73
2023/04/28 08:21:34;;;;;;;;;;;11.00;99.90;;;;;;5123858;28;19920;-70
2023/04/28 08:24:01;;;;;;;;;;;11.00;99.90;;;;;;5123717;28;19920;-69
2023/04/28 08:26:27;;;;;;;;;;;11.00;99.90;;;;;;5120286;28;19919;-69
2023/04/28 08:28:54;;;;;;;;;;;11.00;99.90;;;;;;5127238;28;19927;-69
2023/04/28 08:31:20;;;;;;;;;;;11.00;99.90;;;;;;5127208;28;19987;-69
2023/04/28 08:33:50;;;;;;;;;;;11.00;99.90;;;;;;5126793;28;20283;-69
2023/04/28 08:36:16;;;;;;;;;;;10.90;99.90;;;;;;5126521;28;19920;-69
2023/04/28 08:38:43;;;;;;;;;;;10.90;99.90;;;;;;5127083;28;19980;-69
2023/04/28 08:41:10;;;;;;;;;;;10.90;99.90;;;;;;5106501;28;19920;-69
2023/04/28 08:43:39;;;;;;;;;;;11.00;99.90;;;;;;5106422;28;19955;-70
2023/04/28 08:46:06;;;;;;;;;;;11.00;99.90;;;;;;5106331;28;19955;-69
2023/04/28 08:48:38;;;;;;;;;;;11.10;99.90;;;;;;5106560;28;20150;-70
2023/04/28 08:51:07;;;;;;;;;;;11.10;99.90;;;;;;5106567;28;19926;-71
2023/04/28 08:53:36;;;;;;;;;;;11.10;99.90;;;;;;5106373;28;19920;-70
2023/04/28 08:56:05;;;;;;;;;;;11.10;99.90;;;;;;5105867;28;20187;-69
2023/04/28 08:58:31;;;;;;;;;;;11.10;99.90;;;;;;5086102;28;19924;-70
2023/04/28 09:00:58;;;;;;;;;;;11.10;99.90;;;;;;5104547;28;20235;-71
2023/04/28 09:03:26;;;;;;;;;;;11.10;99.90;;;;;;5105852;28;19920;-70
2023/04/28 09:05:53;;;;;;;;;;;11.10;99.90;;;;;;5105177;28;20259;-69
2023/04/28 09:08:21;;;;;;;;;;;11.20;99.90;;;;;;5105653;28;19979;-69
2023/04/28 09:10:47;;;;;;;;;;;11.10;99.90;;;;;;5105923;28;19920;-71
2023/04/28 09:13:24;;;;;;;;;;;11.10;99.90;;;;;;5106069;28;19927;-70
2023/04/28 09:15:51;;;;;;;;;;;11.10;99.90;;;;;;5105768;28;20122;-70
2023/04/28 09:18:18;;;;;;;;;;;11.10;99.90;;;;;;5105956;28;19959;-71
2023/04/28 09:20:44;;;;;;;;;;;11.00;99.90;;;;;;5106014;28;19920;-70
2023/04/28 09:23:15;;;;;;;;;;;11.10;99.90;;;;;;5105803;28;19952;-71
2023/04/28 09:25:56;;;;;;;;;;;11.00;99.90;;;;;;5104644;28;19991;-68
2023/04/28 09:28:23;;;;;;;;;;;11.10;99.90;;;;;;5105473;28;20111;-70
2023/04/28 09:30:49;;;;;;;;;;;11.10;99.90;;;;;;5105542;28;19926;-69
2023/04/28 09:33:16;;;;;;;;;;;11.20;99.90;;;;;;5105652;28;19942;-69
2023/04/28 09:35:44;;;;;;;;;;;11.20;99.90;;;;;;5104841;28;19995;-70
2023/04/28 09:38:11;;;;;;;;;;;11.20;99.90;;;;;;5104770;28;19973;-69
2023/04/28 09:40:53;;;;;;;;;;;11.20;99.90;;;;;;5105467;28;20123;-69
2023/04/28 09:43:25;;;;;;;;;;;11.30;99.90;;;;;;5105122;28;19959;-69
2023/04/28 09:45:52;;;;;;;;;;;11.20;99.90;;;;;;5104435;28;19942;-69
2023/04/28 09:48:26;;;;;;;;;;;11.30;99.90;;;;;;5105037;28;19987;-69
2023/04/28 09:50:53;;;;;;;;;;;11.40;99.90;;;;;;5104905;28;19999;-69
2023/04/28 09:53:22;;;;;;;;;;;11.40;99.90;;;;;;5105119;28;19954;-69
2023/04/28 09:55:49;;;;;;;;;;;11.40;99.90;;;;;;5104771;28;19927;-69
2023/04/28 09:58:16;;;;;;;;;;;11.50;99.90;;;;;;5104509;28;19920;-69
2023/04/28 10:00:45;;;;;;;;;;;11.60;99.90;;;;;;5104698;28;19987;-70
2023/04/28 10:03:12;;;;;;;;;;;11.60;99.90;;;;;;5105069;28;19920;-69
2023/04/28 10:05:39;;;;;;;;;;;11.70;99.90;;;;;;5104596;28;19983;-69
2023/04/28 10:08:06;;;;;;;;;;;11.70;99.90;;;;;;5104176;28;19987;-69
2023/04/28 10:10:33;;;;;;;;;;;11.70;99.90;;;;;;5104494;28;19992;-69
2023/04/28 10:13:00;;;;;;;;;;;11.70;99.90;;;;;;5104789;28;19920;-69
2023/04/28 10:15:27;;;;;;;;;;;11.80;99.90;;;;;;5100882;28;19920;-69
2023/04/28 10:17:55;;;;;;;;;;;11.80;99.90;;;;;;5094357;28;20173;-72
2023/04/28 10:20:24;;;;;;;;;;;11.90;99.90;;;;;;5096241;28;20257;-71
2023/04/28 10:22:58;;;;;;;;;;;12.00;99.90;;;;;;5104562;28;19951;-69
2023/04/28 10:25:25;;;;;;;;;;;11.90;99.90;;;;;;5085397;28;19920;-70
2023/04/28 10:27:53;;;;;;;;;;;11.80;99.90;;;;;;5081818;28;20181;-71
2023/04/28 10:30:21;;;;;;;;;;;11.80;99.90;;;;;;5084242;28;19927;-69
2023/04/28 10:32:48;;;;;;;;;;;11.90;99.90;;;;;;5093288;28;19920;-69
2023/04/28 10:35:35;;;;;;;;;;;12.00;99.90;;;;;;5104079;28;19987;-69
2023/04/28 10:38:07;;;;;;;;;;;12.10;99.90;;;;;;5103936;28;19924;-69
2023/04/28 10:40:34;;;;;;;;;;;12.20;99.90;;;;;;5103913;28;19920;-69
2023/04/28 10:43:00;;;;;;;;;;;12.30;99.90;;;;;;5104056;28;19962;-69
2023/04/28 10:45:46;;;;;;;;;;;12.40;99.90;;;;;;5103940;28;20302;-71
2023/04/28 10:48:12;;;;;;;;;;;12.40;99.90;;;;;;5102473;28;19944;-67
2023/04/28 10:50:56;;;;;;;;;;;12.50;99.90;;;;;;5083882;28;19980;-66
2023/04/28 10:53:50;;;;;;;;;;;12.60;99.90;;;;;;5102385;28;19927;-67
2023/04/28 10:56:18;;;;;;;;;;;12.70;99.90;;;;;;5094522;28;20026;-68
2023/04/28 10:58:45;;;;;;;;;;;12.80;99.90;;;;;;5083339;28;19920;-67
2023/04/28 11:01:24;;;;;;;;;;;12.90;99.90;;;;;;5083557;28;19927;-67
2023/04/28 11:03:53;;;;;;;;;;;12.90;99.90;;;;;;5078054;28;20184;-67
2023/04/28 11:06:20;;;;;;;;;;;13.00;99.90;;;;;;5082459;28;19927;-67
2023/04/28 11:08:48;;;;;;;;;;;12.90;99.90;;;;;;5083306;28;19920;-70
2023/04/28 11:11:17;;;;;;;;;;;12.90;99.90;;;;;;5096269;28;20285;-66
2023/04/28 11:13:45;;;;;;;;;;;13.00;99.90;;;;;;5094661;28;19965;-67
2023/04/28 11:16:14;;;;;;;;;;;13.00;99.90;;;;;;5103012;28;19928;-69
2023/04/28 11:18:49;;;;;;;;;;;13.00;99.90;;;;;;5100928;28;19927;-67
2023/04/28 11:21:15;;;;;;;;;;;13.10;99.90;;;;;;5103534;28;19961;-67
2023/04/28 11:23:42;;;;;;;;;;;13.10;99.90;;;;;;5103466;28;19983;-67
2023/04/28 11:26:10;;;;;;;;;;;13.10;99.90;;;;;;5098362;28;19952;-68
2023/04/28 11:28:46;;;;;;;;;;;13.20;99.90;;;;;;5084397;28;20034;-67
2023/04/28 11:31:17;;;;;;;;;;;13.30;99.90;;;;;;5103519;28;19974;-66
2023/04/28 11:33:45;;;;;;;;;;;13.30;99.90;;;;;;5103459;28;19966;-68
2023/04/28 11:36:21;;;;;;;;;;;13.40;99.90;;;;;;5103207;28;19926;-68
2023/04/28 11:38:48;;;;;;;;;;;13.40;99.90;;;;;;5098717;28;19927;-67
2023/04/28 11:41:16;;;;;;;;;;;13.40;99.90;;;;;;5083194;28;19962;-66
2023/04/28 11:43:43;;;;;;;;;;;13.40;99.90;;;;;;5096141;28;19927;-66
2023/04/28 11:46:10;;;;;;;;;;;13.40;99.90;;;;;;5097640;28;19920;-68
2023/04/28 11:48:36;;;;;;;;;;;13.50;99.90;;;;;;5103168;28;19920;-69
2023/04/28 11:51:03;;;;;;;;;;;13.50;99.90;;;;;;5085424;28;19987;-67
2023/04/28 11:53:48;;;;;;;;;;;13.60;99.90;;;;;;5082888;28;19921;-69
2023/04/28 11:56:14;;;;;;;;;;;13.60;99.90;;;;;;5082275;28;20267;-67
2023/04/28 11:58:42;;;;;;;;;;;13.70;99.90;;;;;;5082273;28;19983;-68
2023/04/28 12:01:09;;;;;;;;;;;13.80;99.90;;;;;;5084746;28;19926;-67
2023/04/28 12:03:42;;;;;;;;;;;13.90;99.90;;;;;;5086940;28;19920;-67
2023/04/28 12:06:09;;;;;;;;;;;14.00;99.90;;;;;;5086232;28;19921;-69
2023/04/28 12:08:36;;;;;;;;;;;14.10;99.90;;;;;;5086734;28;19920;-67
2023/04/28 12:11:09;;;;;;;;;;;14.10;99.90;;;;;;5086767;28;19956;-70
2023/04/28 12:13:37;;;;;;;;;;;14.10;99.90;;;;;;5085921;28;19936;-67
2023/04/28 12:16:06;;;;;;;;;;;14.00;99.90;;;;;;5086148;28;19989;-66
2023/04/28 12:18:33;;;;;;;;;;;14.00;99.90;;;;;;5086559;28;19920;-68
2023/04/28 12:21:00;;;;;;;;;;;13.90;99.90;;;;;;5097816;28;19920;-67
2023/04/28 12:23:29;;;;;;;;;;;13.80;99.90;;;;;;5107256;28;20100;-68
2023/04/28 12:25:56;;;;;;;;;;;13.90;99.90;;;;;;5106565;28;19983;-68
2023/04/28 12:28:23;;;;;;;;;;;13.90;99.90;;;;;;5106527;28;19955;-67
2023/04/28 12:30:49;;;;;;;;;;;14.00;99.90;;;;;;5106882;28;19920;-68
2023/04/28 12:33:24;;;;;;;;;;;14.00;99.90;;;;;;5106727;28;19920;-67
2023/04/28 12:35:53;;;;;;;;;;;14.10;99.90;;;;;;5106258;28;19919;-68
2023/04/28 12:38:20;;;;;;;;;;;14.10;99.90;;;;;;5106317;28;19920;-68
2023/04/28 12:40:47;;;;;;;;;;;14.10;99.90;;;;;;5106463;28;19920;-68
2023/04/28 12:43:13;;;;;;;;;;;14.10;99.90;;;;;;5106134;28;19978;-67
2023/04/28 12:45:40;;;;;;;;;;;14.00;99.90;;;;;;5106199;28;19920;-68
2023/04/28 12:48:07;;;;;;;;;;;14.00;99.90;;;;;;5106156;28;19920;-66
2023/04/28 12:50:35;;;;;;;;;;;14.00;99.90;;;;;;5094368;28;19921;-67
2023/04/28 12:53:02;;;;;;;;;;;14.00;99.90;;;;;;5085809;28;20279;-67
2023/04/28 12:55:28;;;;;;;;;;;14.00;99.90;;;;;;5085743;28;19965;-68
2023/04/28 12:57:55;;;;;;;;;;;13.90;99.90;;;;;;5085027;28;20039;-68
2023/04/28 13:00:23;;;;;;;;;;;13.90;99.90;;;;;;5085852;28;19920;-66
2023/04/28 13:02:50;;;;;;;;;;;13.90;99.90;;;;;;5085552;28;19984;-67
2023/04/28 13:05:18;;;;;;;;;;;13.90;99.90;;;;;;5085644;28;19920;-68
2023/04/28 13:07:46;;;;;;;;;;;13.90;99.90;;;;;;5084939;28;19921;-67
2023/04/28 13:10:13;;;;;;;;;;;14.00;99.90;;;;;;5094033;28;19958;-68
2023/04/28 13:12:40;;;;;;;;;;;14.00;99.90;;;;;;5102628;28;20115;-68
2023/04/28 13:15:07;;;;;;;;;;;14.00;99.90;;;;;;5105941;28;19985;-68
2023/04/28 13:17:33;;;;;;;;;;;14.00;99.90;;;;;;5104970;28;19929;-68
2023/04/28 13:20:01;;;;;;;;;;;14.00;99.90;;;;;;5102557;28;19920;-67
2023/04/28 13:22:28;;;;;;;;;;;14.00;99.90;;;;;;5085107;28;19920;-68
2023/04/28 13:24:56;;;;;;;;;;;14.00;99.90;;;;;;5085371;28;19988;-67
2023/04/28 13:27:23;;;;;;;;;;;14.00;99.90;;;;;;5085196;28;19920;-67
2023/04/28 13:29:49;;;;;;;;;;;14.00;99.90;;;;;;5099985;28;20233;-68
2023/04/28 13:32:16;;;;;;;;;;;14.00;99.90;;;;;;5105511;28;20066;-70
2023/04/28 13:34:43;;;;;;;;;;;14.00;99.90;;;;;;5105487;28;19920;-67
2023/04/28 13:37:10;;;;;;;;;;;14.00;99.90;;;;;;5104980;28;19919;-67
2023/04/28 13:39:36;;;;;;;;;;;14.00;99.90;;;;;;5105163;28;20495;-68
2023/04/28 13:42:06;;;;;;;;;;;14.00;99.90;;;;;;5105289;28;19962;-67
2023/04/28 13:44:32;;;;;;;;;;;14.00;99.90;;;;;;5107144;28;19944;-67
2023/04/28 13:46:59;;;;;;;;;;;13.90;99.90;;;;;;5124682;28;19951;-67
2023/04/28 13:49:26;;;;;;;;;;;13.90;99.90;;;;;;5124493;28;20204;-68
2023/04/28 13:51:53;;;;;;;;;;;13.90;99.90;;;;;;5125375;28;19927;-67
2023/04/28 13:54:20;;;;;;;;;;;13.90;99.90;;;;;;5125192;28;19920;-68
2023/04/28 13:56:47;;;;;;;;;;;13.90;99.90;;;;;;5125096;28;19926;-67
2023/04/28 13:59:15;;;;;;;;;;;13.90;99.90;;;;;;5122959;28;19983;-68
2023/04/28 14:01:41;;;;;;;;;;;13.90;99.90;;;;;;5123746;28;19991;-67
2023/04/28 14:04:08;;;;;;;;;;;13.90;99.90;;;;;;5125122;28;19926;-67
2023/04/28 14:06:36;;;;;;;;;;;13.90;99.90;;;;;;5119081;28;20014;-66
2023/04/28 14:09:02;;;;;;;;;;;13.90;99.90;;;;;;5100988;28;20236;-66
2023/04/28 14:11:29;;;;;;;;;;;13.90;99.90;;;;;;5083770;28;20350;-66
2023/04/28 14:13:56;;;;;;;;;;;14.00;99.90;;;;;;5081578;28;19988;-66
2023/04/28 14:16:24;;;;;;;;;;;14.00;99.90;;;;;;5085939;28;20262;-66
2023/04/28 14:18:51;;;;;;;;;;;14.00;99.90;;;;;;5090767;28;19928;-71
2023/04/28 14:21:17;;;;;;;;;;;14.00;99.90;;;;;;5082802;28;19920;-68